Aérodrome :
LOGIN :

S'inscrire | Disclaimer

   EN    FR    IT 

 










Légende :    VFR   VFR Marginal   IFR   IFR Intensif   IFR Très Intensif
Visi : 
Plafond : 
>= 8 km
>= 3000ft
5 à 8 km
1000 à 3000 ft
1500m à 5 km
500 à 1000 ft
800 à 1500m
200 à 500 ft
< 800m
< 200 ft
Symboles :   Orages  Brouillard  Fortes neiges  Fortes précipitations  Vent > 20 kt
SIGMETs :   Divers  Orages  Givrage  Turbulence  Onde Orograph.  Cendres Volcan.







- Altitude de l'aérodrome : 529 ft
- Code IATA : CHR
- Voir les cartes d'approche


LFLX - Chateauroux

DERNIER METAR :
  • 251200Z AUTO 25012KT 9999 OVC018 15/11 Q1019 NOSIG

METARs EXPIRÉS :
  • 251130Z AUTO 25014KT 9999 BKN017 OVC022 15/12 Q1019 NOSIG
  • 251100Z AUTO 25014KT 9999 BKN016 OVC022 14/11 Q1019 NOSIG
  • 251030Z AUTO 25013KT 9999 BKN012 OVC023 14/11 Q1020 BECMG BKN020
  • 251000Z AUTO 25013KT 9999 BKN010 OVC015 14/11 Q1019 BECMG BKN020
  • 250930Z AUTO 25011KT 9999 OVC008 13/12 Q1019 BECMG BKN020

TAF TAF LFLX
Valide du 25 à 12h jusqu'au 26 à 18h UTC


251100Z 2512/2618 23012KT 9999 SCT012 BKN017
BECMG 2512/2514 BKN025
PROB40
TEMPO 2514/2517 31015G27KT -SHRA BKN018
BECMG 2517/2519 27008KT SCT040 SCT070
TEMPO 2519/2612 VRB03KT CAVOK
Pas de NOTAMs connus pour ce terrain.



MET'MAP, la Météo Aéronautique d'un coup d'oeil ! - Copyright ORBIFLY Décembre 2007 - Disclaimer

ORBIFLY MET'MAP TEAM :

Programmation & Développement : Alexandra Zaïnal
Conception & Développement : Baudouin d'Aumeries
Co-Programmation & Développement : Marc-Olivier Méhu
Soutien technique & logistique : Manuel Goepfert

Contact : metmap@orbifly.com




SOURCES & CREDITS :

   NOAA